Latest METAR Data

Below are the latest METARs ("Meteorological Services to Airmen Reports"), for RNAS Culdrose and Newquay Airport.

EGDR - RNAS Culdrose
Distance from station: SW 6mi, 9km
Updated: Fri, 05-Mar-2021 12:23pm GMT
Mostly Cloudy
Mostly Cloudy
 Wind from E
Wind: E 17 mph , 28 km/h
Temperature: 43°F , 6°C
Wind Chill: 35°F , 2°C
Dew Point: 32°F , 0°C
Humidity: 66%
Barometer: 30.42 inHg , 1030 hPa
Clouds: Mostly Cloudy
Visibility: 6 miles , 10 km
Cloud details: Mostly Cloudy 3000 ft
2021/03/05 12:23 EGDR 051223Z 09015KT 9999 BKN030 06/00 Q1030 NOSIG RMK BLU BLU
EGHQ - Newquay Airport
Distance from station: NE 21mi, 34km
Updated: Fri, 05-Mar-2021 12:50pm GMT
Mostly Cloudy
Mostly Cloudy
 Wind from ESE
Wind: ESE 13 mph , 20 km/h
Temperature: 41°F , 5°C
Wind Chill: 34°F , 1°C
Dew Point: 28°F , -2°C
Humidity: 61%
Barometer: 30.45 inHg , 1031 hPa
Clouds: Mostly Cloudy
Visibility: 6 miles , 10 km
Cloud details: Mostly Cloudy 3200 ft
2021/03/05 12:50 EGHQ 051250Z 11011KT 9999 BKN032 05/M02 Q1031
 
EGTE - Exeter Airport
Distance from station: ENE 88mi, 141km
Updated: Fri, 05-Mar-2021 12:50pm GMT
Mostly Cloudy
Mostly Cloudy
 Wind from NNE
Wind: NNE 10 mph , 17 km/h
Temperature: 45°F , 7°C
Wind Chill: 40°F , 4°C
Dew Point: 28°F , -2°C
Humidity: 53%
Barometer: 30.47 inHg , 1032 hPa
Clouds: Mostly Cloudy
Visibility: 6 miles , 10 km
Cloud details: Mostly Cloudy 3800 ft
2021/03/05 12:50 EGTE 051250Z 03009KT 9999 BKN038 07/M02 Q1032
EGHE - St Marys, IOS
Distance from station: W 51mi, 82km
Updated: Fri, 05-Mar-2021 9:50am GMT
NOT Current
Mostly Cloudy
Mostly Cloudy
 Wind from E
Wind: E 21 mph , 33 km/h
Temperature: 45°F , 7°C
Wind Chill: 37°F , 3°C
Dew Point: 39°F , 4°C
Humidity: 81%
Barometer: 30.42 inHg , 1030 hPa
Clouds: Mostly Cloudy
Visibility: 6 miles , 10 km
Cloud details: Partly Cloudy 1800 ft
Mostly Cloudy 3000 ft
2021/03/05 09:50 EGHE 050950Z 08018KT 9999 SCT018 BKN030 07/04 Q1030

Metar display script from Saratoga-Weather.org

 

 

UK - WEATHER STATION TOPSITES - UK World Weather Websites

Copyright © Carnkie Weather 2009 - 2021.